Time;durP1;ratioP1;P1;durP2;ratioP2;P2;SDS_P1;SDS_P2;PMS_P1;PMS_P2;Temp;Humidity;BMP_temperature;BMP_pressure;BME280_temperature;BME280_humidity;BME280_pressure;Samples;Min_cycle;Max_cycle;Signal;HPM_P1;HPM_P2
2021/05/11 00:01:56;;;;;;;4.28;1.05;;;;;;;14.88;71.25;94515.00;4994082;28;20031;-87
2021/05/11 00:04:21;;;;;;;1.70;0.95;;;;;;;14.93;70.55;94494.09;4993817;28;20088;-83
2021/05/11 00:06:46;;;;;;;1.40;1.30;;;;;;;14.68;71.91;94517.59;4993894;28;20030;-86
2021/05/11 00:09:12;;;;;;;4.35;0.98;;;;;;;14.85;71.64;94515.72;4993994;28;20041;-85
2021/05/11 00:11:38;;;;;;;2.03;0.98;;;;;;;15.12;69.93;94517.50;4995720;28;20050;-83
2021/05/11 00:14:05;;;;;;;1.60;1.20;;;;;;;14.78;71.02;94510.94;4993630;28;20026;-85
2021/05/11 00:16:30;;;;;;;3.03;0.95;;;;;;;14.81;71.19;94520.97;4993896;28;20038;-83
2021/05/11 00:18:57;;;;;;;2.75;1.05;;;;;;;15.02;70.45;94520.72;4985122;28;20395;-85
2021/05/11 00:21:22;;;;;;;3.55;1.20;;;;;;;14.85;70.73;94500.44;4974555;28;20411;-85
2021/05/11 00:23:47;;;;;;;2.55;1.20;;;;;;;14.68;71.35;94512.22;4975915;28;20022;-85
2021/05/11 00:26:13;;;;;;;1.10;0.82;;;;;;;14.69;71.57;94500.44;4974013;28;20043;-84
2021/05/11 00:28:44;;;;;;;2.58;1.38;;;;;;;14.96;70.30;94500.69;4974219;28;20131;-83
2021/05/11 00:31:10;;;;;;;1.35;1.00;;;;;;;14.61;71.31;94500.59;4974147;28;20047;-83
2021/05/11 00:33:35;;;;;;;3.88;1.00;;;;;;;14.45;72.24;94493.28;4973823;28;20039;-86
2021/05/11 00:36:01;;;;;;;2.08;0.88;;;;;;;14.92;70.69;94499.81;4975160;28;20027;-83
2021/05/11 00:38:26;;;;;;;1.10;0.90;;;;;;;14.76;70.73;94491.78;4995290;28;20015;-84
2021/05/11 00:40:51;;;;;;;2.53;0.98;;;;;;;14.87;70.15;94490.13;4993246;28;20058;-86
2021/05/11 00:43:17;;;;;;;1.20;0.90;;;;;;;14.61;71.84;94508.63;4981429;28;20389;-84
2021/05/11 00:45:42;;;;;;;3.22;1.00;;;;;;;14.77;70.70;94496.78;4980781;28;20472;-85
2021/05/11 00:48:08;;;;;;;1.20;1.00;;;;;;;14.41;72.26;94497.78;4991169;28;20018;-84
2021/05/11 00:50:33;;;;;;;3.47;1.10;;;;;;;14.78;70.93;94513.63;4974634;28;20122;-85
2021/05/11 00:52:59;;;;;;;2.03;1.02;;;;;;;14.72;70.61;94491.69;4973078;28;20138;-84
2021/05/11 00:55:25;;;;;;;2.05;0.88;;;;;;;14.63;70.93;94499.09;4984949;28;20050;-87
2021/05/11 00:57:50;;;;;;;3.95;1.20;;;;;;;14.91;69.74;94496.38;4992965;28;20042;-85
2021/05/11 01:00:16;;;;;;;2.08;1.10;;;;;;;14.42;71.58;94496.66;4992938;28;20042;-81
2021/05/11 01:02:41;;;;;;;2.58;0.93;;;;;;;14.41;72.07;94502.34;4994455;28;20026;-84
2021/05/11 01:05:07;;;;;;;1.60;1.08;;;;;;;14.17;72.93;94484.53;4993014;28;20030;-82
2021/05/11 01:07:33;;;;;;;3.63;1.02;;;;;;;14.10;73.13;94497.72;4992011;28;20394;-84
2021/05/11 01:09:59;;;;;;;1.05;0.80;;;;;;;14.21;72.54;94488.84;4992817;28;20038;-86
2021/05/11 01:12:25;;;;;;;1.15;1.00;;;;;;;14.09;73.28;94488.91;4992610;28;20042;-83
2021/05/11 01:14:52;;;;;;;5.28;1.15;;;;;;;14.07;73.09;94490.38;4992901;28;20030;-84
2021/05/11 01:17:21;;;;;;;2.03;1.25;;;;;;;14.08;73.44;94482.00;4994674;28;20022;-83
2021/05/11 01:19:48;;;;;;;2.05;0.80;;;;;;;14.15;72.71;94465.38;4992241;28;20126;-85
2021/05/11 01:24:48;;;;;;;4.28;1.00;;;;;;;14.30;71.70;94451.25;4992380;28;20035;-84
2021/05/11 01:29:45;;;;;;;0.98;0.90;;;;;;;14.04;72.82;94454.41;4994890;28;20052;-83
2021/05/11 01:32:35;;;;;;;0.75;0.75;;;;;;;13.73;74.18;94439.06;4992921;28;20039;-83
2021/05/11 01:51:52;;;;;;;1.98;1.10;;;;;;;13.21;76.66;94439.84;4992336;28;20044;-82
2021/05/11 02:23:28;;;;;;;1.00;0.80;;;;;;;13.21;76.66;94431.84;4991972;28;20105;-85
2021/05/11 02:25:55;;;;;;;3.08;1.00;;;;;;;13.15;76.41;94433.16;4990718;28;20035;-82
2021/05/11 02:28:20;;;;;;;1.33;0.95;;;;;;;13.12;77.20;94428.53;4991931;28;20520;-82
2021/05/11 02:30:45;;;;;;;0.98;0.98;;;;;;;13.12;77.09;94426.63;4991521;28;20049;-82
2021/05/11 02:33:11;;;;;;;1.27;1.15;;;;;;;13.40;75.84;94429.34;4991676;28;20038;-85
2021/05/11 02:35:36;;;;;;;2.00;0.90;;;;;;;13.17;76.19;94410.38;4993482;28;20030;-84
2021/05/11 02:38:02;;;;;;;1.00;1.00;;;;;;;13.05;77.14;94434.44;4991698;28;20038;-86
2021/05/11 02:40:27;;;;;;;1.20;0.85;;;;;;;12.99;77.52;94436.53;4978619;28;20039;-86
2021/05/11 02:42:58;;;;;;;1.08;0.63;;;;;;;12.65;79.21;94434.34;4972057;28;20035;-85
2021/05/11 02:45:27;;;;;;;1.38;0.77;;;;;;;12.75;78.44;94450.69;4972354;28;20588;-85
2021/05/11 02:47:52;;;;;;;1.33;1.00;;;;;;;12.86;78.56;94443.00;4972005;28;20031;-83
2021/05/11 02:50:23;;;;;;;2.47;0.90;;;;;;;13.00;78.01;94443.44;4974063;28;20119;-83
2021/05/11 02:52:49;;;;;;;1.00;0.90;;;;;;;13.05;77.28;94433.63;4971713;28;20035;-83
2021/05/11 02:55:17;;;;;;;1.08;0.80;;;;;;;13.14;77.18;94432.38;4983110;28;20049;-82
2021/05/11 02:57:43;;;;;;;2.10;1.02;;;;;;;13.11;76.81;94422.41;4991189;28;20053;-82
2021/05/11 03:00:10;;;;;;;1.27;1.10;;;;;;;12.87;77.70;94441.88;4992773;28;20109;-83
2021/05/11 03:02:35;;;;;;;0.85;0.80;;;;;;;12.89;77.99;94431.66;4994738;28;20214;-74
2021/05/11 03:05:01;;;;;;;1.00;0.90;;;;;;;13.09;76.47;94408.59;4993450;28;20543;-83
2021/05/11 03:07:26;;;;;;;1.10;1.00;;;;;;;13.25;75.76;94412.13;4994665;28;20046;-84
2021/05/11 03:09:52;;;;;;;2.67;1.10;;;;;;;13.22;76.04;94415.50;4993731;28;20034;-85
2021/05/11 03:12:19;;;;;;;1.27;0.95;;;;;;;13.11;75.86;94400.28;4992974;28;20034;-82
2021/05/11 03:14:44;;;;;;;1.63;1.15;;;;;;;12.96;76.88;94410.53;4996446;28;20091;-85
2021/05/11 03:17:09;;;;;;;1.27;0.88;;;;;;;13.01;76.96;94415.63;4994560;28;20106;-85
2021/05/11 03:19:35;;;;;;;0.93;0.90;;;;;;;12.90;77.57;94419.88;4994493;28;20096;-82
2021/05/11 03:22:00;;;;;;;1.83;1.40;;;;;;;12.60;79.09;94416.66;4994456;28;20049;-84
2021/05/11 03:24:25;;;;;;;3.13;1.40;;;;;;;12.64;79.16;94417.56;4994163;28;20068;-84
2021/05/11 03:26:51;;;;;;;1.20;1.10;;;;;;;13.00;77.58;94427.44;4995205;28;20023;-82
2021/05/11 03:29:17;;;;;;;1.27;1.17;;;;;;;12.92;77.94;94436.31;4993485;28;20718;-83
2021/05/11 03:31:42;;;;;;;0.93;0.90;;;;;;;12.30;79.83;94399.31;4993225;28;20069;-85
2021/05/11 03:34:08;;;;;;;2.25;1.20;;;;;;;12.85;77.97;94441.47;4994152;28;20046;-84
2021/05/11 03:36:33;;;;;;;0.73;0.73;;;;;;;13.07;77.05;94447.44;4994433;28;20550;-84
2021/05/11 03:39:02;;;;;;;2.58;1.05;;;;;;;13.16;76.70;94440.09;4994373;28;20024;-84
2021/05/11 03:41:32;;;;;;;1.52;0.90;;;;;;;13.29;76.69;94449.63;4996093;28;20026;-83
2021/05/11 03:44:04;;;;;;;3.83;1.52;;;;;;;13.45;75.96;94465.75;4994107;28;20097;-83
2021/05/11 03:46:29;;;;;;;1.70;1.10;;;;;;;13.55;75.24;94457.25;4994062;28;20189;-82
2021/05/11 03:48:55;;;;;;;2.53;1.33;;;;;;;13.59;75.03;94449.34;4994161;28;20495;-83
2021/05/11 03:51:20;;;;;;;1.88;1.20;;;;;;;13.56;74.63;94439.31;4992749;28;20044;-83
2021/05/11 03:53:45;;;;;;;4.00;0.93;;;;;;;13.57;74.48;94433.66;4995490;28;20078;-83
2021/05/11 03:56:11;;;;;;;1.65;1.23;;;;;;;13.64;74.08;94443.75;4992874;28;20036;-84
2021/05/11 03:58:37;;;;;;;1.83;1.40;;;;;;;13.44;74.90;94438.25;4993984;28;20061;-82
2021/05/11 04:01:02;;;;;;;2.83;1.10;;;;;;;13.57;74.71;94446.25;4993765;28;20038;-83
2021/05/11 04:03:28;;;;;;;1.08;1.02;;;;;;;13.55;74.61;94429.75;4992455;28;20121;-82
2021/05/11 04:05:55;;;;;;;1.40;1.30;;;;;;;13.31;75.70;94439.41;4992353;28;20431;-83
2021/05/11 04:11:08;;;;;;;5.53;1.67;;;;;;;13.16;76.13;94416.06;4993076;28;20041;-83
2021/05/11 04:16:21;;;;;;;1.55;1.45;;;;;;;12.95;77.32;94418.88;4984837;28;20135;-83
2021/05/11 04:18:46;;;;;;;2.03;1.00;;;;;;;13.09;76.89;94435.28;4974435;28;20532;-81
2021/05/11 04:21:12;;;;;;;2.15;1.50;;;;;;;12.71;78.03;94415.09;4976791;28;20125;-83
2021/05/11 04:23:37;;;;;;;1.60;1.50;;;;;;;12.45;79.21;94418.09;4995049;28;20026;-82
2021/05/11 04:26:03;;;;;;;1.65;1.30;;;;;;;12.77;78.08;94412.22;4974933;28;20042;-84
2021/05/11 04:28:28;;;;;;;5.97;1.50;;;;;;;12.86;77.18;94410.97;4974012;28;20061;-83
2021/05/11 04:30:53;;;;;;;2.90;1.25;;;;;;;12.88;77.28;94406.06;4973986;28;20230;-82
2021/05/11 04:33:19;;;;;;;2.35;1.40;;;;;;;12.53;78.64;94407.66;4973627;28;20043;-83
2021/05/11 04:35:44;;;;;;;2.67;1.40;;;;;;;12.58;78.62;94413.53;4975766;28;20465;-83
2021/05/11 04:38:10;;;;;;;3.60;1.70;;;;;;;12.59;78.60;94412.44;4974084;28;20496;-83
2021/05/11 04:40:35;;;;;;;1.95;1.52;;;;;;;12.78;77.77;94417.19;4973701;28;20125;-84
2021/05/11 04:43:00;;;;;;;2.00;1.58;;;;;;;12.88;77.46;94408.75;4982705;28;20034;-84
2021/05/11 04:45:27;;;;;;;1.77;1.60;;;;;;;13.02;76.67;94409.16;4992105;28;20099;-83
2021/05/11 04:47:55;;;;;;;3.75;1.60;;;;;;;13.14;76.56;94410.25;4993173;28;20030;-81
2021/05/11 04:50:22;;;;;;;4.78;1.25;;;;;;;13.26;76.07;94396.91;4994033;28;20361;-82
2021/05/11 04:52:49;;;;;;;1.60;1.50;;;;;;;13.23;75.80;94390.34;4992937;28;20129;-84
2021/05/11 04:55:18;;;;;;;3.70;1.75;;;;;;;13.26;75.81;94403.03;4992995;28;20031;-82
2021/05/11 04:57:44;;;;;;;1.48;1.20;;;;;;;13.60;75.17;94408.16;4992806;28;20038;-82
2021/05/11 05:00:11;;;;;;;2.15;1.15;;;;;;;13.87;74.68;94387.84;4993171;28;20033;-84
2021/05/11 05:02:40;;;;;;;1.88;1.20;;;;;;;14.22;73.75;94398.69;4994341;28;20035;-83
2021/05/11 05:05:05;;;;;;;1.42;1.15;;;;;;;14.42;72.51;94394.97;4992830;28;20451;-84
2021/05/11 05:07:31;;;;;;;3.50;1.38;;;;;;;14.67;71.29;94414.31;4991853;28;20093;-85
2021/05/11 05:10:04;;;;;;;4.00;1.50;;;;;;;14.88;70.03;94408.69;4991900;28;20133;-83
2021/05/11 05:12:29;;;;;;;2.70;1.38;;;;;;;15.20;69.38;94416.63;4988477;28;20061;-81
2021/05/11 05:14:55;;;;;;;3.33;1.90;;;;;;;15.45;68.66;94425.97;4969405;28;20039;-69
2021/05/11 05:17:20;;;;;;;2.85;1.85;;;;;;;15.72;67.93;94426.94;4972433;28;20027;-68
2021/05/11 05:19:45;;;;;;;4.10;1.92;;;;;;;15.45;65.96;94417.16;4985613;28;20039;-68
2021/05/11 05:22:11;;;;;;;4.13;1.90;;;;;;;15.11;67.25;94416.84;4978722;28;20101;-68
2021/05/11 05:24:57;;;;;;;5.63;1.83;;;;;;;15.37;66.79;94426.97;4969131;28;20539;-69
2021/05/11 05:27:37;;;;;;;3.35;2.30;;;;;;;15.39;66.47;94416.66;4973117;28;20038;-69
2021/05/11 05:30:04;;;;;;;2.25;1.80;;;;;;;15.57;66.67;94409.78;4989831;28;20029;-67
2021/05/11 05:32:29;;;;;;;4.53;2.03;;;;;;;15.77;65.00;94410.56;4992003;28;20026;-74
2021/05/11 05:34:54;;;;;;;3.53;1.38;;;;;;;15.48;65.85;94387.75;4991148;28;20043;-78
2021/05/11 05:37:20;;;;;;;3.13;1.40;;;;;;;15.18;66.63;94402.81;4990264;28;20073;-74
2021/05/11 05:39:47;;;;;;;6.18;1.73;;;;;;;14.57;69.09;94404.16;4990794;28;20050;-74
2021/05/11 05:42:13;;;;;;;1.33;1.10;;;;;;;14.27;69.60;94383.16;4990856;28;20141;-77
2021/05/11 05:44:39;;;;;;;4.70;1.30;;;;;;;14.93;68.76;94421.81;4992072;28;20478;-79
2021/05/11 05:47:04;;;;;;;3.00;1.50;;;;;;;14.94;68.01;94419.91;4991514;28;20050;-79
2021/05/11 05:49:35;;;;;;;1.40;1.30;;;;;;;14.42;69.60;94426.31;4989895;28;20038;-73
2021/05/11 05:52:03;;;;;;;1.58;1.20;;;;;;;14.25;71.05;94440.81;4990153;28;20053;-68
2021/05/11 05:54:29;;;;;;;2.65;1.40;;;;;;;14.28;70.77;94450.81;4984192;28;20093;-71
2021/05/11 05:56:54;;;;;;;2.95;1.23;;;;;;;14.28;70.66;94448.16;4970885;28;20035;-83
2021/05/11 05:59:20;;;;;;;1.52;1.15;;;;;;;14.30;70.73;94432.53;4972601;28;20027;-73
2021/05/11 06:01:48;;;;;;;1.40;1.30;;;;;;;14.34;70.34;94428.03;4983626;28;20041;-72
2021/05/11 06:04:15;;;;;;;1.40;1.05;;;;;;;14.25;70.90;94449.59;4989486;28;20112;-77
2021/05/11 06:06:41;;;;;;;2.88;1.20;;;;;;;14.33;71.01;94450.56;4981954;28;20035;-77
2021/05/11 06:09:12;;;;;;;2.83;1.35;;;;;;;15.07;68.74;94443.56;4972443;28;20064;-77
2021/05/11 06:14:19;;;;;;;2.55;1.30;;;;;;;16.15;64.69;94448.44;4989759;28;20088;-75
2021/05/11 06:19:28;;;;;;;2.38;1.00;;;;;;;16.08;64.24;94446.41;4990207;28;20106;-75
2021/05/11 06:21:54;;;;;;;1.63;1.20;;;;;;;15.40;65.87;94428.94;4981344;28;20066;-76
2021/05/11 06:24:19;;;;;;;1.52;1.17;;;;;;;15.32;66.42;94405.81;4967796;28;20039;-74
2021/05/11 06:26:46;;;;;;;1.77;1.40;;;;;;;15.27;66.40;94425.63;4970672;28;20038;-74
2021/05/11 06:29:16;;;;;;;1.45;1.35;;;;;;;15.60;66.04;94430.50;4989285;28;20181;-70
2021/05/11 06:31:41;;;;;;;3.90;1.25;;;;;;;15.89;64.51;94423.03;4989272;28;20061;-73
2021/05/11 06:34:09;;;;;;;2.88;1.30;;;;;;;14.95;66.44;94392.78;4977969;28;20085;-74
2021/05/11 06:36:34;;;;;;;0.80;0.80;;;;;;;15.42;66.83;94424.00;4978936;28;20069;-78
2021/05/11 06:39:05;;;;;;;1.25;1.10;;;;;;;15.10;67.92;94417.97;4994232;28;20022;-79
2021/05/11 06:41:30;;;;;;;1.20;1.10;;;;;;;15.16;67.20;94407.78;4996170;28;20391;-75
2021/05/11 06:44:01;;;;;;;1.25;1.13;;;;;;;15.65;65.98;94391.16;4993127;28;20027;-75
2021/05/11 06:54:38;;;;;;;3.70;1.13;;;;;;;16.68;62.45;94403.69;4973318;28;20034;-71
2021/05/11 06:57:07;;;;;;;1.92;1.30;;;;;;;17.29;60.87;94383.09;4974624;28;20461;-71
2021/05/11 06:59:33;;;;;;;2.45;1.48;;;;;;;17.66;59.27;94362.44;4994458;28;20019;-71
2021/05/11 07:02:00;;;;;;;1.48;1.30;;;;;;;17.35;58.02;94378.94;4992369;28;20093;-70
2021/05/11 07:04:26;;;;;;;2.33;1.30;;;;;;;16.89;60.01;94371.81;4977702;28;20045;-73
2021/05/11 07:06:52;;;;;;;1.35;1.10;;;;;;;17.61;58.81;94386.19;4971556;28;20039;-70
2021/05/11 07:09:19;;;;;;;3.08;1.30;;;;;;;18.01;57.98;94374.72;4972954;28;20031;-71
2021/05/11 07:14:13;;;;;;;1.98;1.23;;;;;;;18.58;56.13;94352.91;4991291;28;20048;-70
2021/05/11 07:16:38;;;;;;;2.53;1.27;;;;;;;19.04;54.82;94363.22;4992218;28;20034;-72
2021/05/11 07:19:04;;;;;;;3.08;2.03;;;;;;;19.06;53.74;94315.91;4992230;28;20037;-71
2021/05/11 07:21:29;;;;;;;2.88;1.17;;;;;;;19.53;53.39;94349.22;4991834;28;20039;-71
2021/05/11 07:23:57;;;;;;;1.63;1.15;;;;;;;19.86;52.85;94336.63;4991135;28;20045;-72
2021/05/11 07:26:27;;;;;;;1.50;1.23;;;;;;;20.10;51.40;94341.31;4974614;28;20027;-71
2021/05/11 07:29:36;;;;;;;3.78;1.63;;;;;;;20.21;51.01;94317.78;4972929;28;20039;-71
2021/05/11 07:31:56;;;;;;;1.60;1.50;;;;;;;20.08;50.09;94272.66;4972425;28;20054;-71
2021/05/11 07:34:21;;;;;;;2.38;1.67;;;;;;;19.93;50.60;94293.47;4971135;28;20039;-71
2021/05/11 07:36:48;;;;;;;6.63;1.63;;;;;;;19.91;50.75;94279.56;4979944;28;20054;-71
2021/05/11 07:39:13;;;;;;;1.65;1.45;;;;;;;20.10;50.55;94298.09;4991746;28;20709;-71
2021/05/11 07:41:38;;;;;;;3.83;1.98;;;;;;;19.67;50.63;94264.91;4993883;28;20105;-71
2021/05/11 07:44:04;;;;;;;2.05;1.40;;;;;;;19.87;50.39;94309.28;4973593;28;20523;-71
2021/05/11 08:15:25;;;;;;;2.65;2.03;;;;;;;16.61;62.01;94331.09;4991620;28;20096;-74
2021/05/11 08:18:04;;;;;;;2.20;1.98;;;;;;;16.10;64.13;94326.84;4992091;28;20034;-73
2021/05/11 08:23:34;;;;;;;5.22;1.80;;;;;;;16.95;61.58;94305.13;4990726;28;20093;-74
2021/05/11 08:28:37;;;;;;;3.03;2.25;;;;;;;16.45;62.32;94274.88;4971716;28;20041;-74
2021/05/11 08:31:02;;;;;;;3.08;2.20;;;;;;;15.83;64.94;94283.13;4980917;28;20500;-73
2021/05/11 08:33:28;;;;;;;2.22;2.03;;;;;;;16.08;64.25;94282.75;4990515;28;20586;-73
2021/05/11 08:35:53;;;;;;;3.17;2.13;;;;;;;15.62;65.86;94298.03;4990622;28;20022;-74
2021/05/11 08:38:19;;;;;;;4.80;2.72;;;;;;;15.83;65.34;94301.13;4973438;28;20050;-72
2021/05/11 08:40:44;;;;;;;3.13;2.00;;;;;;;15.49;66.14;94310.81;4986512;28;20050;-72
2021/05/11 08:43:24;;;;;;;2.97;2.22;;;;;;;15.75;66.75;94328.94;4980001;28;20042;-74
2021/05/11 08:45:50;;;;;;;2.88;2.03;;;;;;;16.33;64.96;94316.13;4979218;28;20129;-74
2021/05/11 08:48:17;;;;;;;4.93;2.58;;;;;;;15.97;65.58;94330.06;4987494;28;20130;-73
2021/05/11 08:50:45;;;;;;;3.47;2.10;;;;;;;15.93;65.42;94329.25;4973348;28;20042;-75
2021/05/11 08:53:48;;;;;;;2.22;2.03;;;;;;;16.05;64.70;94327.16;4969690;28;20035;-74
2021/05/11 09:24:44;;;;;;;2.38;1.88;;;;;;;19.53;54.60;94324.94;4972936;28;22291;-73
2021/05/11 10:11:47;;;;;;;5.15;2.80;;;;;;;20.71;49.52;94279.97;4973206;28;20405;-72
2021/05/11 10:40:10;;;;;;;3.65;2.63;;;;;;;22.45;46.00;94253.16;4973685;28;20145;-73
2021/05/11 10:48:18;;;;;;;4.60;2.83;;;;;;;23.08;44.52;94266.47;4969809;28;20042;-73
2021/05/11 10:50:50;;;;;;;5.78;2.80;;;;;;;22.84;44.39;94252.00;4971591;28;20023;-71
2021/05/11 10:53:46;;;;;;;3.88;2.30;;;;;;;22.77;45.38;94247.41;4969609;28;20050;-72
2021/05/11 10:59:17;;;;;;;4.05;2.53;;;;;;;21.19;48.09;94257.81;4973527;28;20575;-72
2021/05/11 11:01:45;;;;;;;5.97;2.72;;;;;;;21.52;47.11;94243.00;4984469;28;20038;-72
2021/05/11 11:04:22;;;;;;;3.63;2.33;;;;;;;21.70;47.31;94258.34;4977857;28;20047;-73
2021/05/11 11:07:08;;;;;;;2.70;2.38;;;;;;;21.60;47.57;94249.16;4969799;28;20042;-73
2021/05/11 11:09:38;;;;;;;3.72;2.47;;;;;;;21.75;47.99;94244.38;4975251;28;20133;-73
2021/05/11 11:12:08;;;;;;;3.15;2.35;;;;;;;21.66;47.70;94246.78;4988862;28;20053;-73
2021/05/11 11:14:36;;;;;;;4.88;2.70;;;;;;;21.91;47.03;94239.28;4989237;28;20099;-73
2021/05/11 11:17:04;;;;;;;4.70;3.25;;;;;;;22.17;46.14;94220.91;4988714;28;20038;-71
2021/05/11 11:19:30;;;;;;;2.92;2.55;;;;;;;22.55;45.21;94230.59;4988703;28;20392;-73
2021/05/11 11:24:25;;;;;;;5.05;3.35;;;;;;;23.09;43.66;94224.66;4976415;28;20042;-75
2021/05/11 11:26:52;;;;;;;4.53;2.67;;;;;;;23.35;43.53;94209.59;4993991;28;20038;-75
2021/05/11 11:29:20;;;;;;;4.88;2.63;;;;;;;23.72;42.82;94210.66;4992581;28;20042;-73
2021/05/11 11:31:46;;;;;;;6.80;3.00;;;;;;;24.04;41.94;94221.78;4992108;28;20100;-75
2021/05/11 11:34:36;;;;;;;3.97;2.92;;;;;;;23.50;42.37;94226.44;4992041;28;20385;-70
2021/05/11 11:37:15;;;;;;;4.43;2.65;;;;;;;22.62;44.60;94223.56;4992273;28;20498;-71
2021/05/11 11:39:50;;;;;;;5.55;2.83;;;;;;;21.44;47.79;94219.06;4985232;28;20043;-70
2021/05/11 11:42:29;;;;;;;3.67;2.65;;;;;;;21.85;47.34;94199.47;4967280;28;20369;-70
2021/05/11 11:44:58;;;;;;;3.47;2.80;;;;;;;21.40;46.79;94100.06;4972173;28;20023;-70
2021/05/11 11:47:24;;;;;;;3.75;2.63;;;;;;;22.22;46.53;94161.66;4992203;28;20034;-72
2021/05/11 11:49:56;;;;;;;4.82;3.17;;;;;;;21.33;47.90;94156.91;4990310;28;20049;-70
2021/05/11 12:00:24;;;;;;;4.97;3.28;;;;;;;19.84;52.82;94247.19;4973010;28;20038;-69
2021/05/11 12:03:02;;;;;;;3.53;2.78;;;;;;;19.88;52.41;94262.22;4973792;28;20077;-72
2021/05/11 12:05:36;;;;;;;4.28;3.00;;;;;;;19.68;53.64;94259.13;4991560;28;20043;-72
2021/05/11 12:08:30;;;;;;;4.22;3.22;;;;;;;19.08;54.78;94275.84;4991516;28;20069;-73
2021/05/11 12:10:58;;;;;;;5.00;3.05;;;;;;;19.14;55.23;94281.66;4993069;28;20050;-70
2021/05/11 12:13:26;;;;;;;5.57;2.88;;;;;;;20.16;53.50;94291.16;4976024;28;20042;-68
2021/05/11 12:16:22;;;;;;;3.83;3.42;;;;;;;19.49;54.41;94295.25;4982378;28;20065;-86
2021/05/11 12:21:30;;;;;;;3.80;3.40;;;;;;;18.61;57.80;94309.84;4976947;28;20035;-80
2021/05/11 12:24:26;;;;;;;4.30;3.33;;;;;;;19.37;55.31;94306.41;4976660;28;20794;-75
2021/05/11 12:26:51;;;;;;;5.10;3.63;;;;;;;18.59;57.23;94292.53;4979237;28;20070;-84
2021/05/11 12:29:18;;;;;;;4.03;3.63;;;;;;;18.51;58.22;94304.38;4993854;28;20057;-74
2021/05/11 12:31:44;;;;;;;4.40;3.70;;;;;;;18.79;58.34;94291.13;4978012;28;20098;-77
2021/05/11 12:34:13;;;;;;;7.10;3.92;;;;;;;19.28;57.38;94283.63;4974228;28;20516;-75
2021/05/11 12:36:46;;;;;;;3.92;3.50;;;;;;;19.61;56.75;94298.81;4983689;28;20054;-75
2021/05/11 12:40:12;;;;;;;4.20;3.80;;;;;;;18.70;58.26;94302.22;4992430;28;22695;-79
2021/05/11 12:42:23;;;;;;;4.20;3.58;;;;;;;19.67;56.62;94297.28;4976190;28;20035;-73
2021/05/11 12:45:04;;;;;;;3.75;3.45;;;;;;;19.43;57.05;94307.56;4996158;28;20490;-72
2021/05/11 12:47:47;;;;;;;7.65;4.10;;;;;;;20.82;53.00;94282.63;4991408;28;20050;-75
2021/05/11 12:50:23;;;;;;;4.47;4.07;;;;;;;20.22;52.56;94262.63;4990848;28;20435;-76
2021/05/11 12:52:51;;;;;;;4.30;3.90;;;;;;;19.05;55.86;94278.56;4990554;28;20033;-75
2021/05/11 13:04:37;;;;;;;3.80;3.28;;;;;;;20.07;55.62;94295.41;4994780;28;20102;-79
2021/05/11 13:15:40;;;;;;;5.68;4.03;;;;;;;20.87;53.21;94290.34;4988851;28;20069;-77
2021/05/11 13:25:58;;;;;;;6.30;3.40;;;;;;;19.08;58.05;94288.56;4989317;28;20049;-79
2021/05/11 13:31:30;;;;;;;4.10;3.47;;;;;;;18.72;59.78;94290.31;4980420;28;20289;-80
2021/05/11 13:36:21;;;;;;;5.18;3.78;;;;;;;18.96;59.70;94281.59;4970585;28;20039;-78
2021/05/11 13:38:46;;;;;;;7.38;4.32;;;;;;;18.45;61.22;94285.09;4973716;28;20110;-73
2021/05/11 13:41:12;;;;;;;5.03;4.25;;;;;;;18.36;61.64;94280.03;4989645;28;20058;-74
2021/05/11 13:43:37;;;;;;;5.68;5.18;;;;;;;18.16;62.25;94284.13;4987807;28;20078;-71
2021/05/11 13:46:02;;;;;;;5.70;4.97;;;;;;;18.36;61.89;94288.13;4979785;28;20035;-71
2021/05/11 13:48:39;;;;;;;4.60;4.20;;;;;;;18.69;61.04;94295.31;4974760;28;20415;-78
2021/05/11 13:51:14;;;;;;;6.15;5.65;;;;;;;18.46;61.11;94308.19;4990479;28;20033;-84
2021/05/11 13:53:41;;;;;;;6.13;5.30;;;;;;;18.49;60.81;94315.53;4990947;28;20027;-78
2021/05/11 13:56:31;;;;;;;6.13;5.50;;;;;;;18.48;60.95;94322.06;4972000;28;20067;-78
2021/05/11 14:04:17;;;;;;;7.10;6.43;;;;;;;17.82;63.15;94331.88;4970522;28;20146;-77
2021/05/11 14:06:43;;;;;;;6.88;5.90;;;;;;;18.52;61.64;94352.47;4970463;28;20093;-76
2021/05/11 14:09:09;;;;;;;11.20;6.00;;;;;;;18.64;61.27;94340.66;4971506;28;20213;-79
2021/05/11 14:11:36;;;;;;;8.15;5.75;;;;;;;18.60;60.24;94346.00;4991679;28;20027;-75
2021/05/11 14:14:03;;;;;;;6.78;6.00;;;;;;;18.38;61.04;94345.06;4972073;28;20046;-76
2021/05/11 14:16:29;;;;;;;9.05;5.90;;;;;;;18.95;58.83;94342.03;4969158;28;20551;-75
2021/05/11 14:18:55;;;;;;;5.03;4.53;;;;;;;19.14;58.25;94360.63;4978250;28;20030;-74
2021/05/11 14:21:20;;;;;;;4.82;4.45;;;;;;;18.99;59.13;94359.00;4988822;28;20038;-76
2021/05/11 14:23:46;;;;;;;4.90;4.50;;;;;;;19.07;59.04;94357.88;4991213;28;20057;-74
2021/05/11 14:26:11;;;;;;;6.47;4.95;;;;;;;19.18;59.17;94352.53;4989268;28;20058;-75
2021/05/11 14:28:39;;;;;;;5.82;5.25;;;;;;;18.61;60.82;94358.31;4989741;28;20045;-77
2021/05/11 14:31:04;;;;;;;7.68;4.60;;;;;;;18.35;62.12;94367.34;4980025;28;20039;-76
2021/05/11 14:33:30;;;;;;;12.43;5.13;;;;;;;18.61;61.89;94363.69;4969732;28;20066;-76
2021/05/11 14:35:55;;;;;;;6.85;4.72;;;;;;;18.70;61.29;94366.88;4970138;28;20027;-76
2021/05/11 14:38:21;;;;;;;6.25;5.40;;;;;;;18.76;60.79;94356.53;4972067;28;20031;-75
2021/05/11 14:40:46;;;;;;;5.30;4.90;;;;;;;18.94;60.72;94365.50;4985359;28;20488;-73
2021/05/11 14:43:12;;;;;;;5.05;4.65;;;;;;;19.07;60.03;94357.88;4978606;28;20054;-74
2021/05/11 14:45:38;;;;;;;5.00;4.40;;;;;;;18.60;61.19;94362.16;4976037;28;20053;-72
2021/05/11 14:48:04;;;;;;;6.07;4.68;;;;;;;18.41;62.08;94363.16;4988010;28;20034;-73
2021/05/11 14:50:30;;;;;;;5.15;4.72;;;;;;;17.92;63.77;94375.03;4991369;28;20026;-72
2021/05/11 14:52:57;;;;;;;7.32;4.43;;;;;;;18.09;62.92;94370.97;4972217;28;20081;-73
2021/05/11 14:55:25;;;;;;;5.78;4.40;;;;;;;18.40;62.23;94361.63;4982288;28;20050;-72
2021/05/11 14:57:51;;;;;;;7.60;4.63;;;;;;;17.77;64.14;94372.56;4985175;28;20065;-73
2021/05/11 15:00:17;;;;;;;4.43;3.72;;;;;;;18.01;63.23;94363.19;4973312;28;20035;-71
2021/05/11 15:02:42;;;;;;;8.00;4.45;;;;;;;18.05;64.03;94375.53;4975137;28;20097;-73
2021/05/11 15:05:08;;;;;;;4.78;4.25;;;;;;;17.39;65.57;94358.25;4991944;28;20042;-76
2021/05/11 15:07:34;;;;;;;4.97;4.57;;;;;;;17.25;66.69;94364.25;4979191;28;20061;-75
2021/05/11 15:10:00;;;;;;;5.07;4.55;;;;;;;17.36;66.66;94369.75;4973355;28;20039;-72
2021/05/11 15:12:26;;;;;;;5.90;4.90;;;;;;;17.17;67.43;94394.06;4972879;28;20070;-72
2021/05/11 15:14:51;;;;;;;7.28;4.90;;;;;;;17.16;66.92;94379.84;4973718;28;20019;-69
2021/05/11 15:19:53;;;;;;;6.75;6.05;;;;;;;16.79;67.89;94401.22;4973194;28;20050;-73
2021/05/11 15:22:20;;;;;;;7.90;7.20;;;;;;;16.98;67.55;94401.09;4972105;28;20047;-72
2021/05/11 15:24:46;;;;;;;7.07;6.43;;;;;;;17.13;67.27;94402.84;4972709;28;20130;-72
2021/05/11 15:27:11;;;;;;;10.45;6.60;;;;;;;17.29;66.75;94410.72;4975732;28;20588;-71
2021/05/11 15:29:37;;;;;;;6.90;6.28;;;;;;;17.26;67.15;94411.47;4994355;28;20506;-76
2021/05/11 15:32:35;;;;;;;7.20;6.53;;;;;;;17.54;66.46;94416.44;5007800;28;20042;-78
2021/05/11 15:35:01;;;;;;;10.90;7.07;;;;;;;17.24;66.33;94408.38;4993018;28;20526;-75
2021/05/11 15:37:27;;;;;;;7.60;7.00;;;;;;;17.55;66.36;94417.19;4980825;28;20504;-85
2021/05/11 15:39:52;;;;;;;8.02;7.40;;;;;;;17.00;67.01;94408.81;4981102;28;20081;-81
2021/05/11 15:42:17;;;;;;;12.65;6.57;;;;;;;17.15;66.34;94418.63;4991997;28;20096;-73
2021/05/11 15:44:43;;;;;;;8.25;7.13;;;;;;;16.81;67.02;94431.16;4994064;28;20061;-73
2021/05/11 15:47:08;;;;;;;7.80;7.10;;;;;;;17.13;67.12;94434.31;4972383;28;20416;-77
2021/05/11 15:49:33;;;;;;;7.90;7.07;;;;;;;16.86;67.60;94442.38;4986224;28;20034;-76
2021/05/11 15:51:59;;;;;;;8.68;7.35;;;;;;;16.81;67.10;94426.56;4983247;28;20039;-74
2021/05/11 15:54:24;;;;;;;11.18;7.53;;;;;;;16.83;66.51;94439.63;4972190;28;20695;-76
2021/05/11 15:56:49;;;;;;;8.00;6.97;;;;;;;16.52;67.70;94441.41;4974686;28;20026;-74
2021/05/11 15:59:15;;;;;;;10.52;7.32;;;;;;;16.69;67.18;94444.75;4992516;28;20042;-75
2021/05/11 16:01:40;;;;;;;7.15;6.43;;;;;;;16.35;68.58;94441.88;4992020;28;20782;-74
2021/05/11 16:04:05;;;;;;;6.78;6.18;;;;;;;16.58;68.82;94447.25;5006285;28;20459;-75
2021/05/11 16:06:31;;;;;;;7.93;7.22;;;;;;;16.85;68.01;94450.81;4986134;28;20094;-77